createdAt,value
2022-08-29T00:00:36.781Z,101252.53
2022-08-29T00:03:09.732Z,101245.78
2022-08-29T00:05:41.938Z,101251.59
2022-08-29T00:08:14.513Z,101245.88
2022-08-29T00:10:46.204Z,101246.91
2022-08-29T00:13:18.166Z,101250.06
2022-08-29T00:15:49.662Z,101247.84
2022-08-29T00:18:21.588Z,101243.16
2022-08-29T00:20:53.078Z,101242.56
2022-08-29T00:23:24.881Z,101240.72
2022-08-29T00:25:56.637Z,101243.84
2022-08-29T00:28:28.456Z,101248.03
2022-08-29T00:30:59.965Z,101252.00
2022-08-29T00:33:31.490Z,101248.50
2022-08-29T00:36:02.986Z,101249.78
2022-08-29T00:38:36.223Z,101116.31
2022-08-29T00:41:08.026Z,101246.50
2022-08-29T00:43:39.996Z,101244.88
2022-08-29T00:46:11.608Z,101248.59
2022-08-29T00:48:43.535Z,101248.25
2022-08-29T00:51:15.032Z,101248.69
2022-08-29T00:53:46.891Z,101242.34
2022-08-29T00:56:18.424Z,101243.28
2022-08-29T00:58:50.451Z,101249.00
2022-08-29T01:01:23.126Z,101247.94
2022-08-29T01:03:55.135Z,101242.22
2022-08-29T01:06:27.169Z,101246.75
2022-08-29T01:08:58.719Z,101242.47
2022-08-29T01:11:49.502Z,101247.22
2022-08-29T01:14:21.010Z,101255.03
2022-08-29T01:16:52.931Z,101254.91
2022-08-29T01:19:24.459Z,101252.44
2022-08-29T01:21:59.800Z,101255.72
2022-08-29T01:24:31.308Z,101258.03
2022-08-29T01:27:03.134Z,101264.22
2022-08-29T01:29:34.881Z,101266.28
2022-08-29T01:32:07.003Z,101260.50
2022-08-29T01:34:38.538Z,101271.19
2022-08-29T01:37:10.418Z,101269.78
2022-08-29T01:39:41.923Z,101267.34
2022-08-29T01:42:13.785Z,101272.94
2022-08-29T01:44:45.543Z,101277.09
2022-08-29T01:47:17.357Z,101273.47
2022-08-29T01:49:50.215Z,101280.47
2022-08-29T01:52:22.235Z,101278.44
2022-08-29T01:54:53.959Z,101279.47
2022-08-29T01:57:25.793Z,101276.41
2022-08-29T01:59:57.303Z,101287.59
2022-08-29T02:02:29.288Z,101283.72
2022-08-29T02:05:00.807Z,101284.16
2022-08-29T02:07:32.663Z,101283.13
2022-08-29T02:10:04.151Z,101290.34
2022-08-29T02:12:36.064Z,101277.84
2022-08-29T02:15:07.708Z,101281.16
2022-08-29T02:17:39.543Z,101281.16
2022-08-29T02:20:11.047Z,101284.06
2022-08-29T02:22:42.851Z,101278.13
2022-08-29T02:25:33.120Z,101281.25
2022-08-29T02:28:05.124Z,101279.16
2022-08-29T02:30:36.621Z,101282.88
2022-08-29T02:33:08.134Z,101273.00
2022-08-29T02:35:42.591Z,101273.44
2022-08-29T02:38:14.870Z,101273.66
2022-08-29T02:40:46.552Z,101279.84
2022-08-29T02:43:19.874Z,101272.25
2022-08-29T02:45:51.390Z,101272.66
2022-08-29T02:48:23.231Z,101277.41
2022-08-29T02:50:54.766Z,101284.63
2022-08-29T02:53:26.961Z,101279.50
2022-08-29T02:55:58.516Z,101286.50
2022-08-29T02:58:30.539Z,101282.63
2022-08-29T03:01:02.100Z,101285.97
2022-08-29T03:03:33.976Z,101285.97
2022-08-29T03:06:05.471Z,101281.06
2022-08-29T03:08:38.406Z,101282.31
2022-08-29T03:11:10.288Z,101282.31
2022-08-29T03:13:41.799Z,101280.09
2022-08-29T03:16:13.683Z,101275.78
2022-08-29T03:18:45.210Z,101279.72
2022-08-29T03:21:17.113Z,101285.50
2022-08-29T03:23:48.682Z,101287.22
2022-08-29T03:26:20.671Z,101292.78
2022-08-29T03:28:52.261Z,101283.31
2022-08-29T03:31:23.991Z,101288.06
2022-08-29T03:33:56.586Z,101276.31
2022-08-29T03:36:28.620Z,101285.38
2022-08-29T03:39:00.154Z,101274.09
2022-08-29T03:41:32.011Z,101106.09
2022-08-29T03:44:03.607Z,101276.53
2022-08-29T03:46:39.825Z,101274.91
2022-08-29T03:49:11.839Z,101274.31
2022-08-29T03:51:43.681Z,101278.00
2022-08-29T03:54:15.220Z,101284.19
2022-08-29T03:56:47.186Z,101287.28
2022-08-29T03:59:18.753Z,101285.66
2022-08-29T04:01:51.217Z,101286.09
2022-08-29T04:04:41.656Z,101285.50
2022-08-29T04:07:15.046Z,101279.34
2022-08-29T04:09:46.548Z,101283.03
2022-08-29T04:12:21.267Z,101280.81
2022-08-29T04:14:53.135Z,101278.34
2022-08-29T04:17:24.662Z,101276.28
2022-08-29T04:19:56.763Z,101281.63
2022-08-29T04:22:28.273Z,101284.53
2022-08-29T04:25:00.123Z,101280.00
2022-08-29T04:27:31.669Z,101282.22
2022-08-29T04:30:03.499Z,101274.22
2022-08-29T04:32:34.996Z,101285.50
2022-08-29T04:35:06.997Z,101290.41
2022-08-29T04:37:39.826Z,101297.56
2022-08-29T04:40:11.680Z,101288.50
2022-08-29T04:42:43.234Z,101288.72
2022-08-29T04:45:15.143Z,101290.72
2022-08-29T04:47:46.640Z,101292.97
2022-08-29T04:50:18.586Z,101296.88
2022-08-29T04:52:50.205Z,101304.16
2022-08-29T04:55:22.673Z,101302.25
2022-08-29T04:57:57.476Z,101301.06
2022-08-29T05:00:30.472Z,101290.97
2022-08-29T05:03:02.525Z,101298.28
2022-08-29T05:05:34.352Z,101297.94
2022-08-29T05:08:05.907Z,101298.84
2022-08-29T05:10:37.715Z,101309.84
2022-08-29T05:13:09.278Z,101298.00
2022-08-29T05:15:41.266Z,101302.00
2022-08-29T05:18:13.442Z,101311.97
2022-08-29T05:20:45.460Z,101313.75
2022-08-29T05:23:16.969Z,101315.19
2022-08-29T05:25:48.480Z,101312.47
2022-08-29T05:28:20.332Z,101316.91
2022-08-29T05:30:52.095Z,101320.63
2022-08-29T05:33:23.875Z,101332.09
2022-08-29T05:35:56.315Z,101332.59
2022-08-29T05:38:27.978Z,101331.06
2022-08-29T05:41:00.289Z,101335.25
2022-08-29T05:43:32.812Z,101327.72
2022-08-29T05:46:04.753Z,101323.91
2022-08-29T05:48:36.339Z,101323.56
2022-08-29T05:51:08.432Z,101327.41
2022-08-29T05:53:40.163Z,101326.50
2022-08-29T05:56:12.101Z,101330.66
2022-08-29T05:58:44.076Z,101330.91
2022-08-29T06:01:15.871Z,101330.09
2022-08-29T06:03:47.684Z,101334.28
2022-08-29T06:06:19.684Z,101330.34
2022-08-29T06:08:54.900Z,101330.22
2022-08-29T06:11:26.853Z,101331.41
2022-08-29T06:13:59.364Z,101330.69
2022-08-29T06:16:31.159Z,101336.66
2022-08-29T06:19:02.663Z,101335.69
2022-08-29T06:21:34.815Z,101339.88
2022-08-29T06:24:06.473Z,101337.41
2022-08-29T06:26:38.039Z,101341.38
2022-08-29T06:29:10.162Z,101346.88
2022-08-29T06:31:41.727Z,101345.00
2022-08-29T06:34:13.265Z,101345.94
2022-08-29T06:36:45.089Z,101341.75
2022-08-29T06:39:16.780Z,101348.34
2022-08-29T06:41:48.300Z,101348.88
2022-08-29T06:44:21.851Z,101355.75
2022-08-29T06:46:53.458Z,101346.75
2022-08-29T06:49:25.788Z,101357.16
2022-08-29T06:51:58.514Z,101358.75
2022-08-29T06:54:30.871Z,101358.91
2022-08-29T06:57:02.438Z,101355.06
2022-08-29T06:59:34.334Z,101370.16
2022-08-29T07:02:05.830Z,101367.75
2022-08-29T07:04:38.073Z,101370.94
2022-08-29T07:07:10.046Z,101358.34
2022-08-29T07:09:41.936Z,101369.69
2022-08-29T07:15:16.093Z,101376.97
2022-08-29T07:17:59.871Z,101377.88
2022-08-29T07:20:39.519Z,101385.50
2022-08-29T07:23:14.030Z,101385.03
2022-08-29T07:25:46.842Z,101383.34
2022-08-29T07:28:21.350Z,101382.28
2022-08-29T07:41:10.059Z,101399.44
2022-08-29T07:43:41.614Z,101386.50
2022-08-29T07:46:16.135Z,101390.47
2022-08-29T07:48:47.703Z,101381.78
2022-08-29T07:51:21.726Z,101391.03
2022-08-29T07:53:53.368Z,101397.00
2022-08-29T07:56:30.327Z,101396.53
2022-08-29T07:59:04.096Z,101399.19
2022-08-29T08:01:35.884Z,101408.84
2022-08-29T08:04:07.779Z,101414.97
2022-08-29T08:06:40.996Z,101410.56
2022-08-29T08:09:15.759Z,101411.13
2022-08-29T08:11:47.453Z,101412.31
2022-08-29T08:14:19.172Z,101412.13
2022-08-29T08:16:50.724Z,101402.41
2022-08-29T08:19:22.496Z,101404.59
2022-08-29T08:21:53.993Z,101413.19
2022-08-29T08:24:25.801Z,101411.59
2022-08-29T08:26:57.933Z,101410.75
2022-08-29T08:29:29.452Z,101411.41
2022-08-29T08:32:00.964Z,101423.16
2022-08-29T08:34:35.715Z,101422.44
2022-08-29T08:37:07.882Z,101418.28
2022-08-29T08:39:39.972Z,101422.03
2022-08-29T08:42:11.505Z,101426.63
2022-08-29T08:44:43.544Z,101422.44
2022-08-29T08:47:15.625Z,101420.41
2022-08-29T08:49:47.853Z,101422.09
2022-08-29T08:52:20.557Z,101415.97
2022-08-29T08:54:53.171Z,101415.97
2022-08-29T08:57:25.552Z,101418.50
2022-08-29T08:59:57.857Z,101427.75
2022-08-29T09:02:29.403Z,101426.78
2022-08-29T09:05:01.015Z,101422.69
2022-08-29T09:07:32.566Z,101424.91
2022-08-29T09:10:04.645Z,101425.97
2022-08-29T09:12:36.200Z,101432.81
2022-08-29T09:15:13.705Z,101432.31
2022-08-29T09:17:45.557Z,101429.50
2022-08-29T09:20:17.096Z,101424.22
2022-08-29T09:22:51.673Z,101436.97
2022-08-29T09:25:27.925Z,101437.72
2022-08-29T09:27:59.746Z,101434.25
2022-08-29T09:30:31.379Z,101428.69
2022-08-29T09:33:02.965Z,101434.25
2022-08-29T09:35:34.836Z,101423.69
2022-08-29T09:38:06.865Z,101424.59
2022-08-29T09:40:38.604Z,101419.22
2022-08-29T09:43:10.155Z,101419.47
2022-08-29T09:45:42.187Z,101423.69
2022-08-29T09:48:14.290Z,101424.09
2022-08-29T09:50:45.847Z,101424.59
2022-08-29T09:53:24.588Z,101421.97
2022-08-29T09:55:56.853Z,101419.03
2022-08-29T09:58:28.722Z,101420.56
2022-08-29T10:01:00.283Z,101425.75
2022-08-29T10:03:32.211Z,101425.66
2022-08-29T10:06:04.457Z,101424.19
2022-08-29T10:08:36.405Z,101434.06
2022-08-29T10:11:08.919Z,101433.97
2022-08-29T10:13:40.780Z,101433.03
2022-08-29T10:16:12.331Z,101435.09
2022-08-29T10:18:44.607Z,101438.97
2022-08-29T10:21:16.713Z,101441.28
2022-08-29T10:23:48.287Z,101439.03
2022-08-29T10:26:20.425Z,101442.00
2022-08-29T10:28:52.001Z,101441.03
2022-08-29T10:31:23.974Z,101437.34
2022-08-29T10:33:55.974Z,101431.22
2022-08-29T10:36:28.017Z,101433.94
2022-08-29T10:38:59.580Z,101436.59
2022-08-29T10:41:31.144Z,101437.72
2022-08-29T10:44:02.677Z,101444.22
2022-08-29T10:46:34.214Z,101436.31
2022-08-29T10:49:07.116Z,101440.81
2022-08-29T10:51:38.633Z,101441.16
2022-08-29T10:54:10.463Z,101437.31
2022-08-29T10:56:41.991Z,101436.81
2022-08-29T10:59:13.833Z,101442.84
2022-08-29T11:01:45.387Z,101431.66
2022-08-29T11:04:20.226Z,101429.81
2022-08-29T11:06:51.791Z,101434.50
2022-08-29T11:09:23.663Z,101423.50
2022-08-29T11:11:55.190Z,101425.78
2022-08-29T11:14:27.011Z,101422.47
2022-08-29T11:16:58.542Z,101425.31
2022-08-29T11:19:34.786Z,101427.56
2022-08-29T11:22:06.289Z,101417.13
2022-08-29T11:24:38.130Z,101418.50
2022-08-29T11:27:09.724Z,101420.53
2022-08-29T11:29:41.546Z,101418.47
2022-08-29T11:32:13.125Z,101414.53
2022-08-29T11:34:44.655Z,101422.31
2022-08-29T11:37:16.272Z,101424.16
2022-08-29T11:39:48.245Z,101420.69
2022-08-29T11:45:11.761Z,101429.03
2022-08-29T11:47:43.291Z,101425.59
2022-08-29T11:50:15.180Z,101430.59
2022-08-29T11:52:46.695Z,101425.44
2022-08-29T11:55:18.556Z,101427.66
2022-08-29T11:57:51.074Z,101429.00
2022-08-29T12:00:22.932Z,101432.00
2022-08-29T12:02:54.822Z,101431.13
2022-08-29T12:05:26.357Z,101428.88
2022-08-29T12:08:02.833Z,101418.88
2022-08-29T12:10:38.247Z,101431.13
2022-08-29T12:13:09.752Z,101427.88
2022-08-29T12:15:42.372Z,101421.69
2022-08-29T12:18:15.468Z,101411.56
2022-08-29T12:20:47.124Z,101419.53
2022-08-29T12:23:19.004Z,101416.50
2022-08-29T12:26:09.555Z,101414.97
2022-08-29T12:28:42.478Z,101410.25
2022-08-29T12:31:14.000Z,101410.31
2022-08-29T12:33:45.677Z,101406.63
2022-08-29T12:36:18.235Z,101405.16
2022-08-29T12:38:50.613Z,101402.69
2022-08-29T12:41:22.103Z,101394.34
2022-08-29T12:43:53.644Z,101391.25
2022-08-29T12:46:25.981Z,101399.38
2022-08-29T12:48:58.466Z,101398.69
2022-08-29T12:51:30.130Z,101395.81
2022-08-29T12:54:02.010Z,101394.91
2022-08-29T12:56:33.517Z,101388.09
2022-08-29T12:59:05.127Z,101378.75
2022-08-29T13:01:38.039Z,101388.63
2022-08-29T13:04:10.030Z,101387.28
2022-08-29T13:06:41.547Z,101388.94
2022-08-29T13:09:17.706Z,101383.84
2022-08-29T13:11:49.323Z,101386.84
2022-08-29T13:14:21.860Z,101377.81
2022-08-29T13:16:53.352Z,101384.47
2022-08-29T13:19:25.769Z,101380.50
2022-08-29T13:21:57.267Z,101379.91
2022-08-29T13:24:29.102Z,101382.00
2022-08-29T13:27:05.310Z,101378.72
2022-08-29T13:29:38.627Z,101380.56
2022-08-29T13:32:10.240Z,101374.41
2022-08-29T13:34:42.053Z,101375.78
2022-08-29T13:37:19.997Z,101365.63
2022-08-29T13:39:52.301Z,101375.63
2022-08-29T13:42:23.893Z,101367.84
2022-08-29T13:44:55.454Z,101365.78
2022-08-29T13:47:26.963Z,101364.53
2022-08-29T13:49:58.799Z,101356.25
2022-08-29T13:52:31.937Z,101354.25
2022-08-29T13:55:03.708Z,101361.72
2022-08-29T13:57:35.591Z,101351.81
2022-08-29T14:00:07.594Z,101352.16
2022-08-29T14:02:44.644Z,101355.31
2022-08-29T14:05:16.843Z,101356.63
2022-08-29T14:07:48.408Z,101349.00
2022-08-29T14:10:19.932Z,101220.75
2022-08-29T14:12:51.474Z,101345.19
2022-08-29T14:15:23.010Z,101348.25
2022-08-29T14:17:54.555Z,101341.00
2022-08-29T14:20:26.160Z,101336.91
2022-08-29T14:22:58.100Z,101340.88
2022-08-29T14:25:29.610Z,101339.81
2022-08-29T14:28:01.456Z,101338.19
2022-08-29T14:30:33.159Z,101341.47
2022-08-29T14:33:05.026Z,101331.47
2022-08-29T14:35:36.527Z,101337.63
2022-08-29T14:38:14.696Z,101333.44
2022-08-29T14:40:46.661Z,101331.44
2022-08-29T14:43:18.570Z,101331.31
2022-08-29T14:45:51.377Z,101355.97
2022-08-29T14:48:23.250Z,101329.56
2022-08-29T14:50:54.779Z,101328.56
2022-08-29T14:53:26.773Z,101327.00
2022-08-29T14:55:58.279Z,101334.00
2022-08-29T14:58:29.804Z,101323.47
2022-08-29T15:01:03.084Z,101329.50
2022-08-29T15:03:34.597Z,101325.38
2022-08-29T15:06:06.420Z,101321.91
2022-08-29T15:08:37.949Z,101325.31
2022-08-29T15:11:09.527Z,101324.56
2022-08-29T15:13:41.047Z,101332.63
2022-08-29T15:16:12.615Z,101321.72
2022-08-29T15:19:24.793Z,101319.22
2022-08-29T15:21:36.506Z,101324.94
2022-08-29T15:24:08.087Z,101319.59
2022-08-29T15:26:39.983Z,101313.56
2022-08-29T15:29:11.502Z,101310.13
2022-08-29T15:31:43.317Z,101305.22
2022-08-29T15:34:14.823Z,101310.09
2022-08-29T15:36:46.652Z,101306.69
2022-08-29T15:39:18.310Z,101311.06
2022-08-29T15:41:49.907Z,101311.69
2022-08-29T15:44:21.403Z,101307.69
2022-08-29T15:46:53.952Z,101308.25
2022-08-29T15:49:25.942Z,101303.44
2022-08-29T15:51:57.844Z,101307.81
2022-08-29T15:54:29.351Z,101299.00
2022-08-29T15:57:00.906Z,101305.25
2022-08-29T15:59:56.725Z,101299.94
2022-08-29T16:02:24.341Z,101297.78
2022-08-29T16:04:57.211Z,101296.81
2022-08-29T16:07:29.792Z,101296.78
2022-08-29T16:10:04.536Z,101298.88
2022-08-29T16:12:42.772Z,101312.88
2022-08-29T16:15:14.276Z,101302.88
2022-08-29T16:17:46.134Z,101296.97
2022-08-29T16:20:17.639Z,101299.81
2022-08-29T16:22:49.185Z,101292.84
2022-08-29T16:25:20.670Z,101304.16
2022-08-29T16:27:52.236Z,101300.66
2022-08-29T16:30:23.768Z,101302.34
2022-08-29T16:32:56.458Z,101301.66
2022-08-29T16:35:28.394Z,101299.94
2022-08-29T16:38:02.654Z,101306.00
2022-08-29T16:40:35.001Z,101293.44
2022-08-29T16:43:06.617Z,101300.19
2022-08-29T16:45:38.287Z,101298.19
2022-08-29T16:48:14.319Z,101307.13
2022-08-29T16:50:48.619Z,101300.28
2022-08-29T16:53:21.021Z,101297.56
2022-08-29T16:55:52.539Z,101299.75
2022-08-29T16:58:42.912Z,101302.34
2022-08-29T17:01:14.496Z,101294.25
2022-08-29T17:03:46.031Z,101300.91
2022-08-29T17:06:17.520Z,101295.47
2022-08-29T17:08:49.336Z,101293.13
2022-08-29T17:11:20.981Z,101294.59
2022-08-29T17:13:52.926Z,101299.03
2022-08-29T17:16:24.503Z,101294.22
2022-08-29T17:18:56.424Z,101297.31
2022-08-29T17:21:27.967Z,101300.94
2022-08-29T17:23:59.512Z,101305.84
2022-08-29T17:26:31.026Z,101301.03
2022-08-29T17:29:02.586Z,101299.47
2022-08-29T17:31:38.432Z,101296.03
2022-08-29T17:34:10.571Z,101302.56
2022-08-29T17:36:44.639Z,101306.69
2022-08-29T17:39:16.179Z,101301.28
2022-08-29T17:41:47.797Z,101308.38
2022-08-29T17:44:20.502Z,101300.78
2022-08-29T17:46:52.013Z,101303.22
2022-08-29T17:49:25.540Z,101305.97
2022-08-29T17:51:59.564Z,101302.19
2022-08-29T17:54:31.102Z,101297.31
2022-08-29T17:57:02.993Z,101300.88
2022-08-29T17:59:34.533Z,101305.19
2022-08-29T18:02:06.416Z,101298.72
2022-08-29T18:04:38.028Z,101316.88
2022-08-29T18:07:09.844Z,101314.44
2022-08-29T18:09:41.362Z,101315.00
2022-08-29T18:12:13.168Z,101317.09
2022-08-29T18:14:44.759Z,101325.78
2022-08-29T18:17:16.642Z,101318.72
2022-08-29T18:19:48.224Z,101323.31
2022-08-29T18:22:20.242Z,101321.97
2022-08-29T18:24:53.212Z,101333.03
2022-08-29T18:27:25.275Z,101333.81
2022-08-29T18:29:57.452Z,101333.81
2022-08-29T18:32:29.705Z,101334.88
2022-08-29T18:35:08.826Z,101340.81
2022-08-29T18:37:40.713Z,101347.25
2022-08-29T18:40:12.311Z,101346.69
2022-08-29T18:42:44.133Z,101349.66
2022-08-29T18:45:16.056Z,101351.75
2022-08-29T18:47:47.959Z,101349.81
2022-08-29T18:50:34.667Z,101354.63
2022-08-29T18:53:06.517Z,101357.84
2022-08-29T18:55:38.085Z,101361.06
2022-08-29T18:58:10.455Z,101364.00
2022-08-29T19:00:42.734Z,101365.84
2022-08-29T19:03:14.955Z,101365.00
2022-08-29T19:05:48.393Z,101374.66
2022-08-29T19:08:20.210Z,101366.78
2022-08-29T19:10:53.987Z,101372.69
2022-08-29T19:13:27.300Z,101375.66
2022-08-29T19:16:03.490Z,101380.22
2022-08-29T19:18:35.125Z,101380.19
2022-08-29T19:21:06.997Z,101390.38
2022-08-29T19:23:38.844Z,101387.03
2022-08-29T19:26:10.372Z,101382.91
2022-08-29T19:28:42.215Z,101385.31
2022-08-29T19:31:15.010Z,101394.47
2022-08-29T19:33:47.890Z,101396.06
2022-08-29T19:36:20.037Z,101397.66
2022-08-29T19:38:51.655Z,101407.06
2022-08-29T19:41:25.103Z,101395.16
2022-08-29T19:43:56.849Z,101397.28
2022-08-29T19:46:33.066Z,101404.00
2022-08-29T19:49:07.623Z,101402.06
2022-08-29T19:51:39.728Z,101402.25
2022-08-29T19:54:11.232Z,101407.91
2022-08-29T19:56:46.719Z,101406.22
2022-08-29T19:59:18.686Z,101406.72
2022-08-29T20:01:50.719Z,101411.00
2022-08-29T20:04:22.275Z,101410.69
2022-08-29T20:06:57.283Z,101410.06
2022-08-29T20:09:31.586Z,101413.44
2022-08-29T20:12:04.176Z,101410.75
2022-08-29T20:14:35.755Z,101411.81
2022-08-29T20:17:09.364Z,101419.09
2022-08-29T20:19:41.114Z,101422.34
2022-08-29T20:22:13.470Z,101424.22
2022-08-29T20:24:46.626Z,101420.72
2022-08-29T20:27:18.432Z,101423.41
2022-08-29T20:29:50.542Z,101423.91
2022-08-29T20:32:22.375Z,101421.72
2022-08-29T20:34:53.886Z,101424.66
2022-08-29T20:37:26.422Z,101435.44
2022-08-29T20:39:58.065Z,101436.28
2022-08-29T20:42:30.624Z,101436.53
2022-08-29T20:45:02.120Z,101439.22
2022-08-29T20:47:33.630Z,101443.78
2022-08-29T20:50:05.134Z,101442.16
2022-08-29T20:52:36.965Z,101451.31
2022-08-29T20:55:08.474Z,101444.25
2022-08-29T20:57:41.456Z,101442.16
2022-08-29T21:00:12.959Z,101449.09
2022-08-29T21:03:03.782Z,101445.00
2022-08-29T21:05:42.489Z,101449.59
2022-08-29T21:08:15.044Z,101451.16
2022-08-29T21:10:46.942Z,101448.97
2022-08-29T21:13:18.917Z,101452.22
2022-08-29T21:15:50.844Z,101451.16
2022-08-29T21:18:24.824Z,101451.66
2022-08-29T21:20:56.648Z,101452.47
2022-08-29T21:23:28.152Z,101457.28
2022-08-29T21:26:00.028Z,101452.16
2022-08-29T21:28:32.857Z,101450.97
2022-08-29T21:31:04.868Z,101452.28
2022-08-29T21:33:36.414Z,101455.25
2022-08-29T21:36:08.648Z,101446.25
2022-08-29T21:38:40.417Z,101449.22
2022-08-29T21:41:12.487Z,101458.59
2022-08-29T21:43:44.056Z,101454.53
2022-08-29T21:46:16.180Z,101454.44
2022-08-29T21:48:47.770Z,101456.00
2022-08-29T21:51:21.957Z,101457.31
2022-08-29T21:53:53.455Z,101462.63
2022-08-29T21:56:25.337Z,101463.34
2022-08-29T21:58:57.212Z,101464.31
2022-08-29T22:01:30.159Z,101462.94
2022-08-29T22:04:01.777Z,101473.94
2022-08-29T22:06:35.435Z,101474.44
2022-08-29T22:09:07.992Z,101469.78
2022-08-29T22:11:39.998Z,101471.59
2022-08-29T22:14:11.740Z,101481.69
2022-08-29T22:16:43.700Z,101477.38
2022-08-29T22:19:15.231Z,101483.25
2022-08-29T22:21:46.784Z,101487.19
2022-08-29T22:24:18.378Z,101484.75
2022-08-29T22:26:50.176Z,101483.69
2022-08-29T22:29:21.832Z,101478.31
2022-08-29T22:31:55.496Z,101476.22
2022-08-29T22:34:27.200Z,101476.22
2022-08-29T22:36:59.078Z,101471.03
2022-08-29T22:39:30.604Z,101481.59
2022-08-29T22:42:02.787Z,101481.38
2022-08-29T22:47:26.083Z,101476.78
2022-08-29T22:49:58.480Z,101473.84
2022-08-29T22:52:29.991Z,101476.56
2022-08-29T22:55:01.817Z,101470.91
2022-08-29T22:57:33.319Z,101481.22
2022-08-29T23:00:05.300Z,101481.69
2022-08-29T23:02:36.842Z,101484.38
2022-08-29T23:05:09.970Z,101491.16
2022-08-29T23:07:41.718Z,101499.00
2022-08-29T23:10:13.651Z,101498.44
2022-08-29T23:12:45.479Z,101494.09
2022-08-29T23:15:17.318Z,101501.13
2022-08-29T23:17:48.849Z,101492.78
2022-08-29T23:20:22.044Z,101496.78
2022-08-29T23:22:53.542Z,101497.03
2022-08-29T23:25:25.845Z,101493.41
2022-08-29T23:27:57.373Z,101486.88
2022-08-29T23:30:29.188Z,101486.75
2022-08-29T23:33:00.684Z,101489.94
2022-08-29T23:35:32.511Z,101481.75
2022-08-29T23:38:04.265Z,101482.25
2022-08-29T23:40:40.416Z,101482.72
2022-08-29T23:43:11.958Z,101478.66
2022-08-29T23:45:43.834Z,101476.19
2022-08-29T23:48:15.458Z,101480.41
2022-08-29T23:50:47.542Z,101476.34
2022-08-29T23:53:20.623Z,101472.72
2022-08-29T23:55:52.439Z,101475.88
2022-08-29T23:58:23.985Z,101480.69
